Time;durP1;ratioP1;P1;durP2;ratioP2;P2;SDS_P1;SDS_P2;PMS_P1;PMS_P2;Temp;Humidity;BMP_temperature;BMP_pressure;BME280_temperature;BME280_humidity;BME280_pressure;Samples;Min_cycle;Max_cycle;Signal;HPM_P1;HPM_P2
2021/03/05 00:01:11;;;;;;;18.95;9.30;;;;;;;2.01;100.00;102389.91;5037638;28;20498;-64
2021/03/05 00:03:37;;;;;;;17.55;9.27;;;;;;;1.92;100.00;102399.00;5039727;28;20189;-63
2021/03/05 00:06:04;;;;;;;17.80;8.95;;;;;;;1.92;100.00;102403.44;5035801;28;20095;-64
2021/03/05 00:08:30;;;;;;;20.42;9.20;;;;;;;1.93;100.00;102407.84;5036277;28;20049;-63
2021/03/05 00:10:57;;;;;;;17.00;9.75;;;;;;;1.93;100.00;102414.03;5036090;28;20045;-64
2021/03/05 00:13:25;;;;;;;16.50;8.68;;;;;;;1.96;100.00;102423.69;5036696;28;20176;-63
2021/03/05 00:16:10;;;;;;;18.35;9.15;;;;;;;1.87;100.00;102415.94;5026353;22;20049;-63
2021/03/05 00:18:36;;;;;;;18.38;9.25;;;;;;;1.83;100.00;102417.84;4983380;28;20046;-64
2021/03/05 00:21:03;;;;;;;16.67;9.73;;;;;;;1.79;100.00;102415.31;4990190;28;20184;-64
2021/03/05 00:23:29;;;;;;;16.65;9.15;;;;;;;1.73;100.00;102421.66;4986975;28;20051;-64
2021/03/05 00:25:54;;;;;;;19.38;9.38;;;;;;;1.68;100.00;102427.06;4989660;28;20541;-64
2021/03/05 00:28:21;;;;;;;18.25;9.65;;;;;;;1.66;100.00;102428.03;4986601;28;20062;-64
2021/03/05 00:30:47;;;;;;;17.02;9.77;;;;;;;1.64;100.00;102427.19;4989621;28;20088;-64
2021/03/05 00:33:13;;;;;;;17.23;9.05;;;;;;;1.67;100.00;102435.94;4986779;28;20058;-64
2021/03/05 00:35:39;;;;;;;19.35;9.20;;;;;;;1.62;100.00;102440.50;4987806;28;20105;-63
2021/03/05 00:38:06;;;;;;;19.95;9.60;;;;;;;1.58;100.00;102433.53;4987694;28;20101;-64
2021/03/05 00:40:31;;;;;;;20.17;9.48;;;;;;;1.60;100.00;102438.81;4987543;28;20071;-63
2021/03/05 00:42:57;;;;;;;20.80;9.77;;;;;;;1.53;100.00;102438.06;4989963;28;20424;-64
2021/03/05 00:45:24;;;;;;;18.35;9.77;;;;;;;1.47;100.00;102444.41;4986767;28;20059;-64
2021/03/05 00:47:50;;;;;;;20.05;9.20;;;;;;;1.43;100.00;102440.09;4987489;28;20438;-64
2021/03/05 00:50:19;;;;;;;23.55;11.10;;;;;;;1.49;100.00;102442.59;4986802;28;20054;-64
2021/03/05 00:52:45;;;;;;;23.23;10.38;;;;;;;1.51;100.00;102455.81;4988865;28;20415;-64
2021/03/05 00:55:12;;;;;;;22.20;11.02;;;;;;;1.47;100.00;102459.47;4986229;28;20411;-64
2021/03/05 00:57:40;;;;;;;20.27;10.35;;;;;;;1.49;100.00;102460.31;4985935;28;20046;-63
2021/03/05 01:00:08;;;;;;;21.90;10.85;;;;;;;1.57;100.00;102460.97;4988238;28;20082;-64
2021/03/05 01:02:34;;;;;;;24.65;11.00;;;;;;;1.45;100.00;102456.84;4986266;28;20050;-64
2021/03/05 01:05:00;;;;;;;21.45;10.80;;;;;;;1.33;100.00;102457.16;4987128;28;20191;-63
2021/03/05 01:07:26;;;;;;;22.95;10.35;;;;;;;1.43;100.00;102461.34;4986312;28;20119;-64
2021/03/05 01:09:52;;;;;;;21.05;10.75;;;;;;;1.36;100.00;102465.03;4987219;28;20081;-64
2021/03/05 01:12:20;;;;;;;21.40;10.02;;;;;;;1.32;100.00;102466.88;4987841;28;20487;-64
2021/03/05 01:14:46;;;;;;;19.95;10.98;;;;;;;1.31;100.00;102467.81;4988101;28;20042;-63
2021/03/05 01:17:12;;;;;;;22.00;10.65;;;;;;;1.22;100.00;102475.97;4985565;28;20066;-64
2021/03/05 01:19:38;;;;;;;23.73;10.35;;;;;;;1.22;100.00;102475.97;4986083;28;20401;-63
2021/03/05 01:22:04;;;;;;;27.48;11.00;;;;;;;1.14;100.00;102472.63;4987295;28;20415;-64
2021/03/05 01:24:30;;;;;;;25.90;12.52;;;;;;;1.17;100.00;102475.22;4985506;28;20042;-64
2021/03/05 01:26:56;;;;;;;21.85;10.32;;;;;;;1.19;100.00;102476.94;4985671;28;20137;-62
2021/03/05 01:29:23;;;;;;;21.63;10.50;;;;;;;1.18;100.00;102484.91;4985022;28;20046;-63
2021/03/05 01:31:49;;;;;;;22.35;11.07;;;;;;;1.11;100.00;102470.91;4987916;28;20046;-65
2021/03/05 01:34:15;;;;;;;23.88;10.77;;;;;;;1.13;100.00;102478.84;4987588;28;20456;-64
2021/03/05 01:36:41;;;;;;;24.08;10.98;;;;;;;1.10;100.00;102485.06;4985075;28;20053;-63
2021/03/05 01:39:07;;;;;;;26.33;10.30;;;;;;;1.16;100.00;102481.41;4986603;28;20636;-63
2021/03/05 01:41:33;;;;;;;24.33;9.40;;;;;;;1.13;100.00;102486.78;4987479;28;20548;-64
2021/03/05 01:43:59;;;;;;;24.02;10.10;;;;;;;1.19;100.00;102491.94;4988645;28;20073;-64
2021/03/05 01:46:27;;;;;;;26.13;9.35;;;;;;;1.14;100.00;102488.53;4986999;28;20050;-64
2021/03/05 01:48:54;;;;;;;20.05;8.57;;;;;;;1.11;100.00;102488.63;4987650;28;20046;-64
2021/03/05 01:51:21;;;;;;;19.90;9.05;;;;;;;1.13;100.00;102489.44;4986610;28;20554;-64
2021/03/05 01:53:48;;;;;;;20.40;8.73;;;;;;;1.04;100.00;102494.03;4987559;28;20060;-64
2021/03/05 01:56:33;;;;;;;22.33;8.25;;;;;;;1.01;100.00;102496.75;4983498;28;20283;-63
2021/03/05 01:59:00;;;;;;;24.23;8.88;;;;;;;0.95;100.00;102494.25;4987258;28;20423;-64
2021/03/05 02:01:28;;;;;;;21.42;8.38;;;;;;;0.96;100.00;102500.44;4987397;28;20514;-64
2021/03/05 02:03:54;;;;;;;21.50;9.38;;;;;;;1.00;100.00;102508.28;4987489;28;20054;-64
2021/03/05 02:06:21;;;;;;;15.73;7.82;;;;;;;0.87;100.00;102501.50;4984070;28;20058;-64
2021/03/05 02:08:47;;;;;;;18.90;7.38;;;;;;;0.96;100.00;102509.25;4986523;28;20065;-63
2021/03/05 02:11:13;;;;;;;20.30;8.05;;;;;;;0.94;100.00;102510.19;4985423;28;20051;-64
2021/03/05 02:13:39;;;;;;;19.52;7.60;;;;;;;0.90;100.00;102505.84;4988297;28;20054;-64
2021/03/05 02:16:14;;;;;;;23.20;8.60;;;;;;;0.83;100.00;102506.00;4986356;28;20046;-64
2021/03/05 02:18:49;;;;;;;26.67;8.55;;;;;;;0.83;100.00;102516.59;4985963;28;20047;-64
2021/03/05 02:21:35;;;;;;;18.77;7.60;;;;;;;0.78;100.00;102512.28;4986989;28;20451;-64
2021/03/05 02:24:16;;;;;;;21.45;7.18;;;;;;;0.84;100.00;102509.50;4987495;28;20101;-65
2021/03/05 02:27:05;;;;;;;23.67;8.23;;;;;;;0.77;100.00;102515.88;4984562;28;20061;-64
2021/03/05 02:30:08;;;;;;;16.67;6.50;;;;;;;0.77;100.00;102521.16;4987555;28;20097;-64
2021/03/05 02:32:39;;;;;;;19.20;7.63;;;;;;;0.76;100.00;102530.00;4984139;28;20050;-63
2021/03/05 02:35:08;;;;;;;27.60;6.72;;;;;;;0.73;100.00;102532.72;4984291;28;20117;-64
2021/03/05 02:37:37;;;;;;;18.75;6.53;;;;;;;0.65;100.00;102533.75;4983629;28;20058;-63
2021/03/05 02:40:07;;;;;;;15.40;6.00;;;;;;;0.64;100.00;102542.59;4985474;28;20057;-64
2021/03/05 02:42:38;;;;;;;17.95;6.53;;;;;;;0.65;100.00;102535.53;4986619;28;20093;-64
2021/03/05 02:45:08;;;;;;;21.88;6.65;;;;;;;0.65;100.00;102544.34;4984731;28;20121;-64
2021/03/05 02:47:34;;;;;;;24.42;7.20;;;;;;;0.62;100.00;102547.06;4984242;28;20046;-63
2021/03/05 02:50:03;;;;;;;21.48;6.63;;;;;;;0.60;100.00;102540.03;4987653;28;20062;-64
2021/03/05 02:52:32;;;;;;;19.23;6.47;;;;;;;0.55;100.00;102547.22;4986938;28;20038;-63
2021/03/05 02:55:01;;;;;;;18.50;6.00;;;;;;;0.52;100.00;102553.44;4986504;28;20570;-63
2021/03/05 02:57:31;;;;;;;15.07;6.03;;;;;;;0.49;100.00;102553.50;4984685;28;20058;-63
2021/03/05 02:59:59;;;;;;;15.93;5.88;;;;;;;0.47;100.00;102547.34;4986948;28;20070;-64
2021/03/05 03:02:27;;;;;;;16.73;5.63;;;;;;;0.51;100.00;102546.38;4983994;28;20046;-63
2021/03/05 03:04:56;;;;;;;20.70;5.70;;;;;;;0.52;100.00;102548.16;4984755;28;20109;-64
2021/03/05 03:07:24;;;;;;;22.07;5.20;;;;;;;0.50;100.00;102557.88;4983462;28;20054;-64
2021/03/05 03:09:51;;;;;;;19.47;5.17;;;;;;;0.42;100.00;102562.47;4987112;28;20057;-64
2021/03/05 03:12:17;;;;;;;12.90;5.57;;;;;;;0.33;100.00;102559.06;4986935;28;20057;-65
2021/03/05 03:14:46;;;;;;;15.55;5.78;;;;;;;0.43;100.00;102564.22;4987018;28;20062;-64
2021/03/05 03:17:14;;;;;;;16.83;5.33;;;;;;;0.39;100.00;102573.13;4982810;28;21771;-64
2021/03/05 03:19:46;;;;;;;15.90;5.22;;;;;;;0.22;100.00;102568.13;4987439;28;20077;-64
2021/03/05 03:22:12;;;;;;;16.40;5.82;;;;;;;0.24;100.00;102572.50;4985753;28;20058;-64
2021/03/05 03:24:39;;;;;;;13.60;5.00;;;;;;;0.15;100.00;102570.88;4982441;28;20055;-64
2021/03/05 03:27:05;;;;;;;11.15;5.00;;;;;;;0.01;100.00;102577.31;4983547;28;20058;-64
2021/03/05 03:29:31;;;;;;;13.80;5.18;;;;;;;-0.04;100.00;102577.41;4985104;28;20050;-64
2021/03/05 03:31:57;;;;;;;15.57;5.47;;;;;;;-0.12;100.00;102576.63;4985569;28;20066;-63
2021/03/05 03:34:23;;;;;;;12.73;4.85;;;;;;;-0.19;100.00;102581.16;4984126;28;20451;-64
2021/03/05 03:36:51;;;;;;;13.13;5.32;;;;;;;-0.25;100.00;102576.84;4985772;28;20474;-64
2021/03/05 03:39:17;;;;;;;17.48;5.03;;;;;;;-0.22;100.00;102591.78;4984281;28;20062;-64
2021/03/05 03:41:44;;;;;;;13.38;4.88;;;;;;;-0.31;100.00;102590.16;4976760;28;20054;-64
2021/03/05 03:44:11;;;;;;;19.33;5.10;;;;;;;-0.24;100.00;102593.59;4989883;28;20062;-64
2021/03/05 03:46:42;;;;;;;17.05;4.50;;;;;;;-0.29;100.00;102601.59;4988526;28;20054;-64
2021/03/05 03:49:13;;;;;;;20.55;4.90;;;;;;;-0.41;100.00;102602.66;4988022;28;20521;-63
2021/03/05 03:51:42;;;;;;;15.95;5.00;;;;;;;-0.53;100.00;102592.22;4991123;28;20108;-63
2021/03/05 03:54:12;;;;;;;;;;;;;;;-0.62;100.00;102609.13;4987115;28;20050;-64
2021/03/05 03:56:39;;;;;;;25.20;5.40;;;;;;;-0.71;100.00;102610.13;4987984;28;19926;-65
2021/03/05 03:59:07;;;;;;;17.42;5.07;;;;;;;-0.75;100.00;102612.81;4988426;28;20090;-63
2021/03/05 04:01:34;;;;;;;21.20;5.85;;;;;;;-0.78;100.00;102621.69;4987607;28;20054;-64
2021/03/05 04:04:01;;;;;;;17.83;4.72;;;;;;;-0.75;100.00;102619.00;4988233;28;20432;-64
2021/03/05 04:06:29;;;;;;;18.23;5.07;;;;;;;-0.72;100.00;102623.38;4988231;28;20050;-64
2021/03/05 04:08:57;;;;;;;12.98;4.55;;;;;;;-0.75;100.00;102624.28;4988768;28;20133;-64
2021/03/05 04:11:24;;;;;;;17.48;5.30;;;;;;;-0.74;100.00;102630.44;4987990;28;20057;-64
2021/03/05 04:13:50;;;;;;;16.23;5.07;;;;;;;-0.63;100.00;102627.63;4989657;28;20046;-64
2021/03/05 04:16:17;;;;;;;25.77;5.50;;;;;;;-0.73;100.00;102625.13;4987510;28;20055;-64
2021/03/05 04:18:43;;;;;;;16.50;5.13;;;;;;;-0.75;100.00;102633.94;4986881;28;20050;-63
2021/03/05 04:21:14;;;;;;;16.98;5.40;;;;;;;-0.81;100.00;102640.22;4988134;28;20594;-64
2021/03/05 04:23:40;;;;;;;13.77;5.05;;;;;;;-0.73;100.00;102640.97;4988509;28;20050;-64
2021/03/05 04:26:06;;;;;;;15.75;5.43;;;;;;;-0.76;100.00;102648.09;4988159;28;20117;-63
2021/03/05 04:28:32;;;;;;;16.15;5.18;;;;;;;-0.83;100.00;102649.91;4988081;28;20046;-65
2021/03/05 04:30:58;;;;;;;15.48;5.18;;;;;;;-0.79;100.00;102648.13;4988384;28;20077;-64
2021/03/05 04:33:24;;;;;;;15.23;5.15;;;;;;;-0.83;100.00;102649.06;4986783;28;20054;-63
2021/03/05 04:35:50;;;;;;;18.13;4.80;;;;;;;-0.85;100.00;102659.66;4988821;28;20101;-64
2021/03/05 04:38:16;;;;;;;14.15;4.22;;;;;;;-0.84;100.00;102650.84;4986644;28;20058;-64
2021/03/05 04:40:42;;;;;;;16.60;5.07;;;;;;;-0.87;100.00;102648.19;4989550;28;20048;-65
2021/03/05 04:43:08;;;;;;;13.73;4.75;;;;;;;-0.96;100.00;102656.25;4987737;28;20070;-64
2021/03/05 04:45:34;;;;;;;12.48;4.72;;;;;;;-0.98;100.00;102660.69;4988802;28;20050;-65
2021/03/05 04:48:00;;;;;;;13.88;4.25;;;;;;;-0.98;100.00;102665.97;4988281;28;20102;-64
2021/03/05 04:50:27;;;;;;;17.13;4.70;;;;;;;-1.02;100.00;102666.91;4989189;28;20061;-65
2021/03/05 04:52:53;;;;;;;17.58;4.93;;;;;;;-1.08;100.00;102658.13;4987950;28;20046;-65
2021/03/05 04:55:19;;;;;;;11.38;4.07;;;;;;;-1.15;100.00;102671.44;4986805;28;20142;-64
2021/03/05 04:57:45;;;;;;;11.77;4.00;;;;;;;-1.26;100.00;102663.63;4987239;28;20054;-64
2021/03/05 05:00:12;;;;;;;11.02;4.53;;;;;;;-1.32;100.00;102675.13;4988421;28;20061;-64
2021/03/05 05:02:38;;;;;;;12.60;4.63;;;;;;;-1.32;100.00;102674.25;4986570;28;20058;-65
2021/03/05 05:05:05;;;;;;;12.50;4.40;;;;;;;-1.41;100.00;102673.44;4986517;28;20110;-64
2021/03/05 05:07:32;;;;;;;13.55;4.90;;;;;;;-1.43;100.00;102677.88;4987472;28;20460;-65
2021/03/05 05:09:57;;;;;;;14.65;4.55;;;;;;;-1.42;100.00;102678.75;4988524;28;20050;-63
2021/03/05 05:12:23;;;;;;;14.25;3.90;;;;;;;-1.50;100.00;102681.44;4984959;28;20086;-64
2021/03/05 05:14:49;;;;;;;16.90;5.90;;;;;;;-1.60;100.00;102685.06;4987047;28;20053;-64
2021/03/05 05:17:15;;;;;;;10.57;4.40;;;;;;;-1.61;100.00;102685.94;4985353;28;20117;-65
2021/03/05 05:19:42;;;;;;;12.10;4.93;;;;;;;-1.70;100.00;102688.66;4987673;28;20047;-64
2021/03/05 05:22:08;;;;;;;10.27;3.88;;;;;;;-1.68;100.00;102692.16;4987617;28;20062;-65
2021/03/05 05:24:37;;;;;;;9.15;4.15;;;;;;;-1.80;100.00;102698.41;4986727;28;20152;-65
2021/03/05 05:27:04;;;;;;;10.40;4.60;;;;;;;-1.82;100.00;102706.34;4986656;28;20055;-65
2021/03/05 05:29:29;;;;;;;11.65;4.32;;;;;;;-1.84;100.00;102705.47;4987005;28;20068;-64
2021/03/05 05:31:55;;;;;;;12.60;4.65;;;;;;;-1.73;100.00;102699.25;4987555;28;20062;-64
2021/03/05 05:34:21;;;;;;;14.98;4.38;;;;;;;-1.63;100.00;102701.78;4986737;28;20431;-65
2021/03/05 05:36:47;;;;;;;18.33;4.70;;;;;;;-1.65;100.00;102702.69;4984134;28;20054;-64
2021/03/05 05:39:13;;;;;;;16.50;4.70;;;;;;;-1.55;100.00;102704.38;4986424;28;20145;-63
2021/03/05 05:41:40;;;;;;;18.08;4.93;;;;;;;-1.58;100.00;102714.97;4986394;28;20054;-64
2021/03/05 05:44:07;;;;;;;13.73;5.18;;;;;;;-1.64;100.00;102731.72;4988694;28;20050;-64
2021/03/05 05:46:34;;;;;;;15.13;4.30;;;;;;;-1.72;100.00;102722.09;4986513;28;20149;-64
2021/03/05 05:49:00;;;;;;;14.10;4.82;;;;;;;-1.69;100.00;102722.06;4987596;28;20062;-64
2021/03/05 05:51:29;;;;;;;13.05;3.90;;;;;;;-1.80;100.00;102728.31;4986697;28;20053;-64
2021/03/05 05:57:01;;;;;;;15.10;5.13;;;;;;;-1.69;100.00;102735.28;5021017;23;20053;-63
2021/03/05 05:59:27;;;;;;;16.52;5.05;;;;;;;-1.58;100.00;102741.38;5019957;28;20486;-64
2021/03/05 06:01:53;;;;;;;11.30;4.32;;;;;;;-1.37;100.00;102731.50;5019023;28;20129;-64
2021/03/05 06:04:20;;;;;;;13.07;4.30;;;;;;;-1.32;100.00;102743.81;5019998;28;20042;-64
2021/03/05 06:06:47;;;;;;;16.20;5.13;;;;;;;-1.36;100.00;102746.47;5018352;28;20046;-65
2021/03/05 06:09:13;;;;;;;17.27;5.38;;;;;;;-1.26;100.00;102742.88;5018795;28;20053;-64
2021/03/05 06:11:40;;;;;;;19.00;5.03;;;;;;;-1.32;100.00;102753.50;5018824;28;20816;-65
2021/03/05 06:14:08;;;;;;;10.65;4.13;;;;;;;-1.33;100.00;102757.88;5020079;28;20046;-65
2021/03/05 06:16:35;;;;;;;12.13;4.38;;;;;;;-1.31;100.00;102750.84;5018495;28;20049;-64
2021/03/05 06:19:16;;;;;;;14.05;4.60;;;;;;;-1.36;100.00;102757.91;5018188;28;20054;-65
2021/03/05 06:21:42;;;;;;;15.40;5.25;;;;;;;-1.41;100.00;102765.88;5020028;28;20096;-65
2021/03/05 06:24:09;;;;;;;16.30;5.50;;;;;;;-1.47;100.00;102771.22;5017846;28;20045;-64
2021/03/05 06:26:49;;;;;;;11.52;4.80;;;;;;;-1.49;100.00;102783.53;5020017;28;20055;-64
2021/03/05 06:29:17;;;;;;;12.48;4.40;;;;;;;-1.50;100.00;102781.81;5018282;28;20056;-64
2021/03/05 06:31:52;;;;;;;18.85;5.82;;;;;;;-1.34;100.00;102793.13;5019811;28;20046;-64
2021/03/05 06:34:18;;;;;;;16.25;5.00;;;;;;;-1.19;100.00;102794.78;5018520;28;20053;-65
2021/03/05 06:36:44;;;;;;;11.40;5.03;;;;;;;-1.19;100.00;102794.78;5019158;28;20049;-65
2021/03/05 06:39:10;;;;;;;23.40;5.68;;;;;;;-1.12;100.00;102798.22;5017763;28;20099;-64
2021/03/05 06:41:36;;;;;;;13.80;5.38;;;;;;;-0.95;100.00;102792.81;5019345;28;20049;-65
2021/03/05 06:44:04;;;;;;;15.57;5.13;;;;;;;-0.82;100.00;102799.72;5018543;28;20056;-65
2021/03/05 06:49:09;;;;;;;16.15;4.18;;;;;;;-0.75;100.00;102800.53;5031946;23;20057;-64
2021/03/05 06:51:35;;;;;;;14.85;4.22;;;;;;;-0.69;100.00;102811.06;5031883;28;20078;-65
2021/03/05 06:54:06;;;;;;;13.40;3.70;;;;;;;-0.67;100.00;102816.34;5036990;28;20049;-64
2021/03/05 06:56:34;;;;;;;15.25;3.92;;;;;;;-0.61;100.00;102824.22;5036292;28;20064;-64
2021/03/05 06:59:02;;;;;;;13.30;3.97;;;;;;;-0.66;100.00;102812.78;5038229;28;20048;-65
2021/03/05 07:01:28;;;;;;;13.18;3.50;;;;;;;-0.66;100.00;102818.06;5038888;28;20060;-64
2021/03/05 07:04:11;;;;;;;16.30;4.18;;;;;;;-0.67;100.00;102822.50;5030641;28;20057;-64
2021/03/05 07:06:38;;;;;;;18.23;3.72;;;;;;;-0.60;100.00;102824.19;5034073;28;20099;-65
2021/03/05 07:09:06;;;;;;;16.90;3.88;;;;;;;-0.58;100.00;102838.25;5036926;28;20415;-65
2021/03/05 07:11:38;;;;;;;12.85;3.90;;;;;;;-0.56;100.00;102848.81;5037153;28;20399;-65
2021/03/05 07:14:09;;;;;;;15.35;3.75;;;;;;;-0.46;100.00;102841.69;5037916;28;20045;-65
2021/03/05 07:16:43;;;;;;;9.52;3.85;;;;;;;-0.37;100.00;102846.88;5035932;28;20426;-65
2021/03/05 07:19:12;;;;;;;10.45;3.22;;;;;;;-0.27;100.00;102847.66;5041012;28;20054;-66
2021/03/05 07:21:43;;;;;;;9.50;3.08;;;;;;;-0.29;100.00;102854.75;5041377;28;20064;-65
2021/03/05 07:24:11;;;;;;;10.25;3.33;;;;;;;-0.19;100.00;102853.75;5042244;28;20068;-65
2021/03/05 07:26:43;;;;;;;11.50;3.08;;;;;;;-0.13;100.00;102860.72;5043889;28;20049;-65
2021/03/05 07:29:16;;;;;;;10.10;2.45;;;;;;;-0.10;100.00;102866.88;5038772;28;20061;-66
2021/03/05 07:31:44;;;;;;;11.80;2.47;;;;;;;-0.02;100.00;102866.78;5040342;28;20053;-65
2021/03/05 07:34:17;;;;;;;10.57;2.30;;;;;;;0.07;100.00;102868.44;5040811;28;20045;-64
2021/03/05 07:36:49;;;;;;;7.32;2.53;;;;;;;0.18;100.00;102877.13;5034588;28;20069;-64
2021/03/05 07:39:21;;;;;;;8.75;1.92;;;;;;;0.22;100.00;102875.31;5038882;28;20057;-65
2021/03/05 07:41:51;;;;;;;11.98;2.15;;;;;;;0.34;100.00;102876.03;5040100;28;20045;-64
2021/03/05 07:44:17;;;;;;;7.30;1.60;;;;;;;0.31;100.00;102873.44;5037651;28;20053;-65
2021/03/05 07:46:43;;;;;;;6.90;1.88;;;;;;;0.39;100.00;102880.41;5037753;28;20103;-65
2021/03/05 07:49:10;;;;;;;5.40;1.70;;;;;;;0.56;100.00;102881.06;5031075;28;20069;-65
2021/03/05 07:51:38;;;;;;;13.10;2.08;;;;;;;0.61;100.00;102879.19;5035160;28;20056;-66
2021/03/05 07:54:05;;;;;;;10.55;2.63;;;;;;;0.60;100.00;102884.53;5030440;28;20053;-66
2021/03/05 07:56:44;;;;;;;5.32;1.55;;;;;;;0.66;100.00;102885.31;5032101;28;20521;-64
2021/03/05 07:59:10;;;;;;;;;;;;;;;0.68;100.00;102885.28;5030840;28;20049;-66
2021/03/05 08:01:56;;;;;;;6.35;1.73;;;;;;;0.78;100.00;102881.63;5037850;28;19921;-64
2021/03/05 08:04:22;;;;;;;7.88;2.00;;;;;;;0.88;100.00;102892.94;5037993;28;20065;-66
2021/03/05 08:07:09;;;;;;;12.10;2.80;;;;;;;1.04;100.00;102897.09;5038757;28;20076;-65
2021/03/05 08:09:37;;;;;;;11.18;2.28;;;;;;;1.14;100.00;102886.34;5035206;28;20124;-65
2021/03/05 08:12:40;;;;;;;9.30;2.80;;;;;;;1.23;99.38;102902.97;5032933;28;20064;-64
2021/03/05 08:15:27;;;;;;;5.88;2.30;;;;;;;1.39;98.69;102914.22;4950442;28;20117;-64
2021/03/05 08:17:54;;;;;;;6.55;2.20;;;;;;;1.38;97.70;102911.59;4964336;28;20054;-65
2021/03/05 08:20:49;;;;;;;7.22;2.15;;;;;;;1.40;97.72;102905.34;5006852;28;20191;-65
2021/03/05 08:23:16;;;;;;;7.93;2.10;;;;;;;1.53;96.77;102913.09;5037973;28;20095;-65
2021/03/05 08:25:54;;;;;;;8.88;2.25;;;;;;;1.62;95.51;102910.31;5038256;28;20154;-65
2021/03/05 08:28:39;;;;;;;12.50;2.80;;;;;;;1.74;94.44;102909.19;5035859;28;20055;-64
2021/03/05 08:31:35;;;;;;;6.38;1.88;;;;;;;1.70;92.16;102908.38;5034526;28;20049;-65
2021/03/05 08:34:25;;;;;;;6.05;1.77;;;;;;;1.82;92.26;102912.56;5036287;28;20069;-65
2021/03/05 08:36:52;;;;;;;5.57;1.63;;;;;;;1.82;91.25;102912.56;5035172;28;20069;-65
2021/03/05 08:39:30;;;;;;;4.82;1.80;;;;;;;2.00;90.83;102910.47;5036168;28;20502;-65
2021/03/05 08:42:35;;;;;;;10.95;1.48;;;;;;;2.14;89.03;102919.03;5035545;28;20486;-65
2021/03/05 08:45:13;;;;;;;11.52;2.10;;;;;;;2.09;88.12;102915.59;5026949;28;20172;-64
2021/03/05 08:47:41;;;;;;;8.32;1.50;;;;;;;2.25;89.11;102932.09;5036449;28;20103;-66
2021/03/05 08:50:08;;;;;;;8.63;1.50;;;;;;;2.38;89.00;102938.91;5037558;28;20064;-65
2021/03/05 08:52:34;;;;;;;11.15;1.70;;;;;;;2.42;87.44;102932.63;5031057;28;20123;-65
2021/03/05 08:57:37;;;;;;;5.65;1.40;;;;;;;2.50;84.47;102943.09;5042493;23;20037;-65
2021/03/05 09:00:05;;;;;;;4.15;1.27;;;;;;;2.37;82.40;102941.59;5034735;28;20049;-64
2021/03/05 09:02:31;;;;;;;4.10;1.30;;;;;;;2.35;81.23;102933.66;5036658;28;20498;-66
2021/03/05 09:04:57;;;;;;;5.40;1.25;;;;;;;2.34;80.54;102937.25;5035389;28;20058;-66
2021/03/05 09:07:23;;;;;;;3.35;1.48;;;;;;;2.43;79.21;102939.72;5034478;28;20056;-64
2021/03/05 09:09:50;;;;;;;6.78;1.40;;;;;;;2.51;78.92;102938.69;5035296;28;20108;-65
2021/03/05 09:12:19;;;;;;;4.03;1.10;;;;;;;2.55;79.15;102932.38;5035250;28;20065;-65
2021/03/05 09:14:57;;;;;;;6.28;1.20;;;;;;;2.76;78.66;102937.22;5037290;28;20457;-66
2021/03/05 09:17:23;;;;;;;1.63;0.85;;;;;;;2.77;76.09;102948.75;5027193;28;20493;-64
2021/03/05 09:19:49;;;;;;;5.75;1.20;;;;;;;2.80;75.35;102948.69;5038858;28;20041;-64
2021/03/05 09:22:17;;;;;;;4.75;1.08;;;;;;;2.87;75.28;102952.06;5034324;28;20129;-65
2021/03/05 09:24:59;;;;;;;3.22;1.13;;;;;;;2.90;73.83;102947.56;5037076;28;20057;-64
2021/03/05 09:27:28;;;;;;;4.10;0.88;;;;;;;2.93;73.78;102946.59;5032654;28;20111;-64
2021/03/05 09:29:56;;;;;;;2.95;1.30;;;;;;;3.00;72.41;102953.53;5052765;23;20057;-65
2021/03/05 09:32:22;;;;;;;5.85;1.30;;;;;;;3.06;73.33;102956.06;5023696;28;20092;-65
2021/03/05 09:34:54;;;;;;;3.53;1.20;;;;;;;3.19;71.61;102953.09;5024041;28;20061;-65
2021/03/05 09:37:21;;;;;;;4.45;1.23;;;;;;;3.31;71.83;102953.69;5022794;28;20041;-65
2021/03/05 09:39:48;;;;;;;3.85;1.45;;;;;;;3.26;67.86;102960.91;5021049;28;20057;-64
2021/03/05 09:42:14;;;;;;;3.88;1.30;;;;;;;3.28;67.50;102958.19;5021230;28;20057;-65
2021/03/05 09:44:42;;;;;;;3.78;1.27;;;;;;;3.39;68.26;102958.81;5025797;28;20057;-65
2021/03/05 09:47:09;;;;;;;2.97;1.17;;;;;;;3.41;68.14;102950.81;5021522;28;20111;-65
2021/03/05 09:49:35;;;;;;;2.38;1.02;;;;;;;3.40;66.28;102957.03;5020479;28;20467;-65
2021/03/05 09:52:01;;;;;;;2.92;1.23;;;;;;;3.52;66.12;102964.72;5024606;28;20131;-64
2021/03/05 09:54:34;;;;;;;5.35;1.42;;;;;;;3.48;66.04;102971.03;5022851;28;20041;-65
2021/03/05 09:57:00;;;;;;;4.43;1.50;;;;;;;3.53;69.17;102970.91;5021123;28;20156;-64
2021/03/05 09:59:40;;;;;;;4.88;1.27;;;;;;;3.55;67.13;102974.41;5021728;28;20486;-65
2021/03/05 10:02:07;;;;;;;3.70;1.25;;;;;;;3.67;65.14;102971.44;5020380;28;20045;-65
2021/03/05 10:04:42;;;;;;;4.03;1.20;;;;;;;3.65;62.90;102968.81;5027539;28;20053;-64
2021/03/05 10:07:08;;;;;;;5.30;1.30;;;;;;;3.75;63.81;102964.13;5024945;28;20184;-64
2021/03/05 10:09:34;;;;;;;3.40;1.20;;;;;;;3.77;62.62;102966.72;5026744;28;20061;-64
2021/03/05 10:12:00;;;;;;;2.72;0.98;;;;;;;3.80;61.01;102967.56;5026892;28;20048;-65
2021/03/05 10:14:29;;;;;;;3.70;1.08;;;;;;;3.83;63.11;102966.59;5027000;28;20069;-65
2021/03/05 10:17:06;;;;;;;4.25;1.10;;;;;;;3.73;61.57;102971.28;5017726;28;20041;-64
2021/03/05 10:19:33;;;;;;;1.75;1.00;;;;;;;3.96;61.13;102972.47;5027701;28;20395;-64
2021/03/05 10:22:00;;;;;;;4.32;1.58;;;;;;;4.07;62.66;102982.84;5018154;28;20099;-65
2021/03/05 10:24:28;;;;;;;5.38;1.23;;;;;;;3.97;61.59;102979.53;5026740;28;20173;-65
2021/03/05 10:27:12;;;;;;;4.22;1.25;;;;;;;4.13;60.65;102994.19;5025798;28;20041;-65
2021/03/05 10:29:39;;;;;;;5.53;1.58;;;;;;;4.14;60.02;102976.44;5026998;28;20535;-64
2021/03/05 10:32:19;;;;;;;2.58;1.23;;;;;;;4.28;61.86;102989.38;5026861;28;20483;-65
2021/03/05 10:34:46;;;;;;;2.80;1.30;;;;;;;4.25;60.89;102982.31;5027724;28;20064;-64
2021/03/05 10:37:14;;;;;;;3.22;1.50;;;;;;;4.39;58.90;102989.94;5026218;28;20078;-64
2021/03/05 10:39:41;;;;;;;4.70;1.42;;;;;;;4.41;59.88;102989.91;5026425;28;20073;-62
2021/03/05 10:42:12;;;;;;;2.70;1.58;;;;;;;4.57;58.35;103000.06;5025320;28;20079;-63
2021/03/05 10:44:38;;;;;;;3.55;1.38;;;;;;;4.50;58.81;102993.16;5021347;28;20062;-63
2021/03/05 10:47:06;;;;;;;5.50;1.45;;;;;;;4.63;59.21;103006.16;5019869;28;20116;-64
2021/03/05 10:49:32;;;;;;;3.90;1.58;;;;;;;4.48;58.48;103000.34;5023563;28;20041;-63
2021/03/05 10:51:58;;;;;;;6.28;1.50;;;;;;;4.77;59.64;102995.97;5027340;28;20061;-63
2021/03/05 10:54:25;;;;;;;3.85;1.55;;;;;;;4.76;58.30;103004.03;5029994;28;20053;-63
2021/03/05 10:56:52;;;;;;;3.63;1.30;;;;;;;4.48;58.69;103007.47;5028497;28;20045;-64
2021/03/05 10:59:19;;;;;;;5.68;1.70;;;;;;;4.58;59.21;103008.97;5025892;28;20180;-63
2021/03/05 11:01:46;;;;;;;5.43;1.67;;;;;;;4.43;58.12;103002.28;5026481;28;20073;-63
2021/03/05 11:04:12;;;;;;;4.78;1.83;;;;;;;4.55;59.60;103009.91;5027145;28;20513;-64
2021/03/05 11:06:38;;;;;;;2.97;1.27;;;;;;;4.68;59.55;103009.56;5030151;28;20045;-64
2021/03/05 11:09:06;;;;;;;8.23;1.60;;;;;;;4.81;59.95;103010.06;5030089;28;20556;-64
2021/03/05 11:11:33;;;;;;;3.60;1.25;;;;;;;4.95;59.97;103013.22;5029143;28;20041;-64
2021/03/05 11:14:00;;;;;;;2.97;1.38;;;;;;;4.96;59.08;103020.31;5031053;28;20049;-64
2021/03/05 11:16:26;;;;;;;3.10;1.30;;;;;;;5.02;59.35;103021.88;5028872;28;20046;-64
2021/03/05 11:18:52;;;;;;;7.03;1.25;;;;;;;5.13;59.53;103027.78;5030645;28;20057;-64
2021/03/05 11:21:18;;;;;;;6.93;1.83;;;;;;;5.04;58.68;103033.41;5029352;28;20075;-65
2021/03/05 11:23:45;;;;;;;7.57;1.92;;;;;;;5.01;60.82;103033.50;5030581;28;20450;-65
2021/03/05 11:26:11;;;;;;;5.97;1.70;;;;;;;5.00;59.00;103027.28;5028322;28;20053;-65
2021/03/05 11:28:38;;;;;;;4.35;1.65;;;;;;;4.95;57.74;103028.31;5018898;28;20053;-65
2021/03/05 11:31:04;;;;;;;6.18;1.70;;;;;;;5.34;58.09;103039.56;5027927;28;20053;-65
2021/03/05 11:33:30;;;;;;;7.18;2.38;;;;;;;5.33;57.40;103039.63;5022517;28;20045;-65
2021/03/05 11:35:56;;;;;;;5.22;2.00;;;;;;;5.34;57.75;103044.06;5025751;28;20057;-65